sensor_id;sensor_type;location;lat;lon;timestamp;P1;durP1;ratioP1;P2;durP2;ratioP2
58697;SDS011;44475;53.206;-6.106;2023-02-15T00:01:11;161.75;;;66.57;;
58697;SDS011;44475;53.206;-6.106;2023-02-15T00:03:37;155.63;;;61.33;;
58697;SDS011;44475;53.206;-6.106;2023-02-15T00:06:04;146.00;;;60.80;;
58697;SDS011;44475;53.206;-6.106;2023-02-15T00:08:31;143.48;;;58.95;;
58697;SDS011;44475;53.206;-6.106;2023-02-15T00:11:07;131.32;;;54.03;;
58697;SDS011;44475;53.206;-6.106;2023-02-15T00:13:34;120.97;;;51.33;;
58697;SDS011;44475;53.206;-6.106;2023-02-15T00:16:05;119.93;;;51.55;;
58697;SDS011;44475;53.206;-6.106;2023-02-15T00:18:33;120.63;;;50.25;;
58697;SDS011;44475;53.206;-6.106;2023-02-15T00:21:02;103.43;;;48.42;;
58697;SDS011;44475;53.206;-6.106;2023-02-15T00:23:30;103.55;;;46.42;;
58697;SDS011;44475;53.206;-6.106;2023-02-15T00:26:06;107.50;;;44.72;;
58697;SDS011;44475;53.206;-6.106;2023-02-15T00:28:37;97.55;;;44.42;;
58697;SDS011;44475;53.206;-6.106;2023-02-15T00:31:04;91.30;;;41.65;;
58697;SDS011;44475;53.206;-6.106;2023-02-15T00:33:34;98.40;;;42.42;;
58697;SDS011;44475;53.206;-6.106;2023-02-15T00:36:01;90.10;;;41.00;;
58697;SDS011;44475;53.206;-6.106;2023-02-15T00:38:29;83.53;;;39.60;;
58697;SDS011;44475;53.206;-6.106;2023-02-15T00:40:59;87.95;;;38.85;;
58697;SDS011;44475;53.206;-6.106;2023-02-15T00:43:27;73.28;;;35.08;;
58697;SDS011;44475;53.206;-6.106;2023-02-15T00:45:55;71.40;;;34.45;;
58697;SDS011;44475;53.206;-6.106;2023-02-15T00:48:22;74.95;;;34.47;;
58697;SDS011;44475;53.206;-6.106;2023-02-15T00:50:49;66.90;;;33.17;;
58697;SDS011;44475;53.206;-6.106;2023-02-15T00:53:23;67.78;;;31.92;;
58697;SDS011;44475;53.206;-6.106;2023-02-15T00:55:51;64.65;;;30.60;;
58697;SDS011;44475;53.206;-6.106;2023-02-15T00:58:17;58.75;;;29.13;;
58697;SDS011;44475;53.206;-6.106;2023-02-15T01:00:44;67.80;;;29.15;;
58697;SDS011;44475;53.206;-6.106;2023-02-15T01:03:13;54.55;;;27.42;;
58697;SDS011;44475;53.206;-6.106;2023-02-15T01:05:41;51.78;;;26.35;;
58697;SDS011;44475;53.206;-6.106;2023-02-15T01:08:07;55.03;;;26.35;;
58697;SDS011;44475;53.206;-6.106;2023-02-15T01:10:36;52.05;;;25.63;;
58697;SDS011;44475;53.206;-6.106;2023-02-15T01:13:03;54.45;;;25.23;;
58697;SDS011;44475;53.206;-6.106;2023-02-15T01:15:29;46.80;;;23.10;;
58697;SDS011;44475;53.206;-6.106;2023-02-15T01:17:56;45.47;;;22.92;;
58697;SDS011;44475;53.206;-6.106;2023-02-15T01:20:23;44.72;;;22.17;;
58697;SDS011;44475;53.206;-6.106;2023-02-15T01:22:51;44.35;;;22.25;;
58697;SDS011;44475;53.206;-6.106;2023-02-15T01:25:20;42.03;;;20.73;;
58697;SDS011;44475;53.206;-6.106;2023-02-15T01:27:47;42.80;;;20.20;;
58697;SDS011;44475;53.206;-6.106;2023-02-15T01:30:13;39.97;;;19.77;;
58697;SDS011;44475;53.206;-6.106;2023-02-15T01:32:41;36.85;;;19.23;;
58697;SDS011;44475;53.206;-6.106;2023-02-15T01:35:08;39.22;;;18.05;;
58697;SDS011;44475;53.206;-6.106;2023-02-15T01:37:35;33.13;;;17.60;;
58697;SDS011;44475;53.206;-6.106;2023-02-15T01:40:04;33.08;;;16.92;;
58697;SDS011;44475;53.206;-6.106;2023-02-15T01:42:33;30.48;;;16.63;;
58697;SDS011;44475;53.206;-6.106;2023-02-15T01:45:03;29.67;;;16.02;;
58697;SDS011;44475;53.206;-6.106;2023-02-15T01:47:47;33.30;;;15.88;;
58697;SDS011;44475;53.206;-6.106;2023-02-15T01:50:30;26.85;;;14.65;;
58697;SDS011;44475;53.206;-6.106;2023-02-15T01:56:10;32.73;;;14.13;;
58697;SDS011;44475;53.206;-6.106;2023-02-15T01:58:47;26.08;;;12.98;;
58697;SDS011;44475;53.206;-6.106;2023-02-15T02:01:15;29.00;;;13.65;;
58697;SDS011;44475;53.206;-6.106;2023-02-15T02:04:04;26.77;;;12.38;;
58697;SDS011;44475;53.206;-6.106;2023-02-15T02:06:36;25.58;;;12.65;;
58697;SDS011;44475;53.206;-6.106;2023-02-15T02:09:05;27.13;;;12.02;;
58697;SDS011;44475;53.206;-6.106;2023-02-15T02:11:31;23.48;;;11.32;;
58697;SDS011;44475;53.206;-6.106;2023-02-15T02:13:59;22.45;;;11.50;;
58697;SDS011;44475;53.206;-6.106;2023-02-15T02:16:32;18.63;;;11.07;;
58697;SDS011;44475;53.206;-6.106;2023-02-15T02:19:15;20.88;;;10.68;;
58697;SDS011;44475;53.206;-6.106;2023-02-15T02:27:18;19.50;;;10.02;;
58697;SDS011;44475;53.206;-6.106;2023-02-15T02:38:00;20.70;;;9.52;;
58697;SDS011;44475;53.206;-6.106;2023-02-15T02:43:05;16.88;;;8.60;;
58697;SDS011;44475;53.206;-6.106;2023-02-15T02:45:44;16.38;;;7.95;;
58697;SDS011;44475;53.206;-6.106;2023-02-15T02:48:33;14.98;;;8.20;;
58697;SDS011;44475;53.206;-6.106;2023-02-15T02:50:59;16.05;;;8.15;;
58697;SDS011;44475;53.206;-6.106;2023-02-15T02:53:26;15.60;;;7.32;;
58697;SDS011;44475;53.206;-6.106;2023-02-15T02:58:36;13.88;;;7.07;;
58697;SDS011;44475;53.206;-6.106;2023-02-15T03:03:49;12.23;;;6.95;;
58697;SDS011;44475;53.206;-6.106;2023-02-15T03:06:19;12.95;;;7.10;;
58697;SDS011;44475;53.206;-6.106;2023-02-15T03:08:54;11.23;;;6.50;;
58697;SDS011;44475;53.206;-6.106;2023-02-15T03:11:27;11.68;;;6.60;;
58697;SDS011;44475;53.206;-6.106;2023-02-15T03:13:54;11.48;;;6.32;;
58697;SDS011;44475;53.206;-6.106;2023-02-15T03:16:22;12.20;;;6.30;;
58697;SDS011;44475;53.206;-6.106;2023-02-15T03:18:52;10.52;;;6.25;;
58697;SDS011;44475;53.206;-6.106;2023-02-15T03:21:38;14.38;;;6.28;;
58697;SDS011;44475;53.206;-6.106;2023-02-15T03:27:05;10.05;;;5.70;;
58697;SDS011;44475;53.206;-6.106;2023-02-15T03:29:37;10.18;;;6.00;;
58697;SDS011;44475;53.206;-6.106;2023-02-15T03:32:05;9.90;;;5.50;;
58697;SDS011;44475;53.206;-6.106;2023-02-15T03:34:35;9.10;;;5.60;;
58697;SDS011;44475;53.206;-6.106;2023-02-15T03:39:54;9.43;;;5.43;;
58697;SDS011;44475;53.206;-6.106;2023-02-15T03:42:46;8.73;;;5.38;;
58697;SDS011;44475;53.206;-6.106;2023-02-15T03:45:22;10.95;;;5.43;;
58697;SDS011;44475;53.206;-6.106;2023-02-15T03:47:53;8.05;;;5.05;;
58697;SDS011;44475;53.206;-6.106;2023-02-15T03:50:24;11.82;;;5.30;;
58697;SDS011;44475;53.206;-6.106;2023-02-15T03:53:14;7.88;;;5.05;;
58697;SDS011;44475;53.206;-6.106;2023-02-15T03:55:46;8.63;;;4.97;;
58697;SDS011;44475;53.206;-6.106;2023-02-15T03:58:13;10.10;;;5.35;;
58697;SDS011;44475;53.206;-6.106;2023-02-15T04:00:59;9.77;;;5.50;;
58697;SDS011;44475;53.206;-6.106;2023-02-15T04:03:50;7.97;;;4.63;;
58697;SDS011;44475;53.206;-6.106;2023-02-15T04:06:24;8.95;;;4.88;;
58697;SDS011;44475;53.206;-6.106;2023-02-15T04:08:50;8.15;;;5.05;;
58697;SDS011;44475;53.206;-6.106;2023-02-15T04:11:35;8.57;;;4.97;;
58697;SDS011;44475;53.206;-6.106;2023-02-15T04:14:01;8.45;;;5.05;;
58697;SDS011;44475;53.206;-6.106;2023-02-15T04:16:48;7.90;;;4.88;;
58697;SDS011;44475;53.206;-6.106;2023-02-15T04:19:14;8.85;;;4.90;;
58697;SDS011;44475;53.206;-6.106;2023-02-15T04:21:59;8.82;;;5.10;;
58697;SDS011;44475;53.206;-6.106;2023-02-15T04:24:44;6.68;;;4.70;;
58697;SDS011;44475;53.206;-6.106;2023-02-15T04:27:29;8.77;;;4.53;;
58697;SDS011;44475;53.206;-6.106;2023-02-15T04:29:55;8.00;;;4.60;;
58697;SDS011;44475;53.206;-6.106;2023-02-15T04:32:22;7.03;;;4.30;;
58697;SDS011;44475;53.206;-6.106;2023-02-15T04:34:48;7.50;;;4.28;;
58697;SDS011;44475;53.206;-6.106;2023-02-15T04:37:14;8.45;;;4.53;;
58697;SDS011;44475;53.206;-6.106;2023-02-15T04:39:40;6.97;;;4.32;;
58697;SDS011;44475;53.206;-6.106;2023-02-15T04:42:07;6.57;;;4.40;;
58697;SDS011;44475;53.206;-6.106;2023-02-15T04:44:33;7.75;;;4.30;;
58697;SDS011;44475;53.206;-6.106;2023-02-15T04:46:59;10.10;;;4.10;;
58697;SDS011;44475;53.206;-6.106;2023-02-15T04:49:25;6.95;;;4.25;;
58697;SDS011;44475;53.206;-6.106;2023-02-15T04:51:52;9.23;;;4.45;;
58697;SDS011;44475;53.206;-6.106;2023-02-15T04:54:18;7.10;;;4.38;;
58697;SDS011;44475;53.206;-6.106;2023-02-15T04:56:44;6.43;;;4.22;;
58697;SDS011;44475;53.206;-6.106;2023-02-15T04:59:10;9.65;;;4.38;;
58697;SDS011;44475;53.206;-6.106;2023-02-15T05:01:37;7.90;;;3.80;;
58697;SDS011;44475;53.206;-6.106;2023-02-15T05:04:03;5.75;;;3.97;;
58697;SDS011;44475;53.206;-6.106;2023-02-15T05:06:30;5.53;;;3.53;;
58697;SDS011;44475;53.206;-6.106;2023-02-15T05:08:56;5.85;;;3.80;;
58697;SDS011;44475;53.206;-6.106;2023-02-15T05:11:24;6.55;;;4.03;;
58697;SDS011;44475;53.206;-6.106;2023-02-15T05:13:51;6.38;;;3.95;;
58697;SDS011;44475;53.206;-6.106;2023-02-15T05:16:17;5.75;;;3.63;;
58697;SDS011;44475;53.206;-6.106;2023-02-15T05:18:43;6.05;;;3.72;;
58697;SDS011;44475;53.206;-6.106;2023-02-15T05:21:09;6.57;;;4.07;;
58697;SDS011;44475;53.206;-6.106;2023-02-15T05:23:36;7.00;;;3.80;;
58697;SDS011;44475;53.206;-6.106;2023-02-15T05:26:02;5.65;;;3.50;;
58697;SDS011;44475;53.206;-6.106;2023-02-15T05:28:47;5.82;;;3.70;;
58697;SDS011;44475;53.206;-6.106;2023-02-15T05:31:16;7.72;;;3.90;;
58697;SDS011;44475;53.206;-6.106;2023-02-15T05:33:43;6.03;;;3.65;;
58697;SDS011;44475;53.206;-6.106;2023-02-15T05:36:10;5.43;;;3.60;;
58697;SDS011;44475;53.206;-6.106;2023-02-15T05:38:36;5.75;;;3.80;;
58697;SDS011;44475;53.206;-6.106;2023-02-15T05:41:03;6.45;;;3.97;;
58697;SDS011;44475;53.206;-6.106;2023-02-15T05:43:31;11.90;;;3.78;;
58697;SDS011;44475;53.206;-6.106;2023-02-15T05:45:57;7.68;;;3.85;;
58697;SDS011;44475;53.206;-6.106;2023-02-15T05:48:24;7.88;;;3.78;;
58697;SDS011;44475;53.206;-6.106;2023-02-15T05:51:05;5.70;;;3.47;;
58697;SDS011;44475;53.206;-6.106;2023-02-15T05:53:34;5.57;;;3.83;;
58697;SDS011;44475;53.206;-6.106;2023-02-15T05:56:01;5.20;;;3.50;;
58697;SDS011;44475;53.206;-6.106;2023-02-15T05:58:33;6.43;;;3.65;;
58697;SDS011;44475;53.206;-6.106;2023-02-15T06:01:11;5.18;;;3.47;;
58697;SDS011;44475;53.206;-6.106;2023-02-15T06:03:39;6.35;;;3.50;;
58697;SDS011;44475;53.206;-6.106;2023-02-15T06:06:06;5.53;;;3.30;;
58697;SDS011;44475;53.206;-6.106;2023-02-15T06:08:33;6.75;;;3.55;;
58697;SDS011;44475;53.206;-6.106;2023-02-15T06:11:00;4.97;;;3.25;;
58697;SDS011;44475;53.206;-6.106;2023-02-15T06:13:27;5.38;;;3.15;;
58697;SDS011;44475;53.206;-6.106;2023-02-15T06:15:53;6.20;;;3.22;;
58697;SDS011;44475;53.206;-6.106;2023-02-15T06:18:19;4.78;;;3.20;;
58697;SDS011;44475;53.206;-6.106;2023-02-15T06:20:46;5.47;;;3.15;;
58697;SDS011;44475;53.206;-6.106;2023-02-15T06:23:13;4.53;;;2.88;;
58697;SDS011;44475;53.206;-6.106;2023-02-15T06:25:39;5.28;;;3.00;;
58697;SDS011;44475;53.206;-6.106;2023-02-15T06:28:06;4.35;;;2.88;;
58697;SDS011;44475;53.206;-6.106;2023-02-15T06:30:33;3.85;;;2.67;;
58697;SDS011;44475;53.206;-6.106;2023-02-15T06:32:59;4.38;;;2.83;;
58697;SDS011;44475;53.206;-6.106;2023-02-15T06:35:25;4.95;;;2.92;;
58697;SDS011;44475;53.206;-6.106;2023-02-15T06:37:52;4.35;;;2.70;;
58697;SDS011;44475;53.206;-6.106;2023-02-15T06:40:18;3.63;;;2.47;;
58697;SDS011;44475;53.206;-6.106;2023-02-15T06:42:44;3.88;;;2.50;;
58697;SDS011;44475;53.206;-6.106;2023-02-15T06:45:11;4.03;;;2.55;;
58697;SDS011;44475;53.206;-6.106;2023-02-15T06:47:37;4.05;;;2.60;;
58697;SDS011;44475;53.206;-6.106;2023-02-15T06:50:04;4.20;;;2.53;;
58697;SDS011;44475;53.206;-6.106;2023-02-15T06:52:32;4.47;;;2.72;;
58697;SDS011;44475;53.206;-6.106;2023-02-15T06:54:58;4.63;;;2.55;;
58697;SDS011;44475;53.206;-6.106;2023-02-15T06:57:25;4.45;;;2.50;;
58697;SDS011;44475;53.206;-6.106;2023-02-15T06:59:51;3.55;;;2.40;;
58697;SDS011;44475;53.206;-6.106;2023-02-15T07:02:17;2.90;;;2.17;;
58697;SDS011;44475;53.206;-6.106;2023-02-15T07:04:45;3.55;;;2.40;;
58697;SDS011;44475;53.206;-6.106;2023-02-15T07:07:11;3.00;;;2.30;;
58697;SDS011;44475;53.206;-6.106;2023-02-15T07:09:38;3.15;;;2.38;;
58697;SDS011;44475;53.206;-6.106;2023-02-15T07:12:05;6.78;;;2.92;;
58697;SDS011;44475;53.206;-6.106;2023-02-15T07:14:50;3.13;;;2.10;;
58697;SDS011;44475;53.206;-6.106;2023-02-15T07:17:17;2.92;;;2.05;;
58697;SDS011;44475;53.206;-6.106;2023-02-15T07:19:43;3.60;;;2.30;;
58697;SDS011;44475;53.206;-6.106;2023-02-15T07:22:09;2.97;;;2.20;;
58697;SDS011;44475;53.206;-6.106;2023-02-15T07:24:35;3.25;;;1.90;;
58697;SDS011;44475;53.206;-6.106;2023-02-15T07:27:02;2.97;;;2.15;;
58697;SDS011;44475;53.206;-6.106;2023-02-15T07:29:28;2.88;;;2.08;;
58697;SDS011;44475;53.206;-6.106;2023-02-15T07:31:54;2.55;;;1.90;;
58697;SDS011;44475;53.206;-6.106;2023-02-15T07:34:21;3.55;;;2.00;;
58697;SDS011;44475;53.206;-6.106;2023-02-15T07:36:47;3.22;;;2.03;;
58697;SDS011;44475;53.206;-6.106;2023-02-15T07:39:16;4.57;;;2.30;;
58697;SDS011;44475;53.206;-6.106;2023-02-15T07:41:42;5.65;;;2.00;;
58697;SDS011;44475;53.206;-6.106;2023-02-15T07:44:11;5.57;;;2.08;;
58697;SDS011;44475;53.206;-6.106;2023-02-15T07:46:38;4.63;;;2.10;;
58697;SDS011;44475;53.206;-6.106;2023-02-15T07:49:05;4.82;;;2.03;;
58697;SDS011;44475;53.206;-6.106;2023-02-15T07:51:31;8.35;;;2.10;;
58697;SDS011;44475;53.206;-6.106;2023-02-15T07:53:57;5.47;;;2.10;;
58697;SDS011;44475;53.206;-6.106;2023-02-15T07:56:24;8.45;;;2.15;;
58697;SDS011;44475;53.206;-6.106;2023-02-15T07:58:50;13.68;;;2.70;;
58697;SDS011;44475;53.206;-6.106;2023-02-15T08:01:23;30.85;;;3.72;;
58697;SDS011;44475;53.206;-6.106;2023-02-15T08:03:52;31.85;;;3.03;;
58697;SDS011;44475;53.206;-6.106;2023-02-15T08:06:19;27.88;;;3.00;;
58697;SDS011;44475;53.206;-6.106;2023-02-15T08:08:49;24.13;;;4.18;;
58697;SDS011;44475;53.206;-6.106;2023-02-15T08:11:17;28.23;;;3.88;;
58697;SDS011;44475;53.206;-6.106;2023-02-15T08:13:52;20.27;;;3.55;;
58697;SDS011;44475;53.206;-6.106;2023-02-15T08:19:05;34.10;;;4.05;;
58697;SDS011;44475;53.206;-6.106;2023-02-15T08:21:36;35.45;;;3.92;;
58697;SDS011;44475;53.206;-6.106;2023-02-15T08:24:04;55.28;;;4.85;;
58697;SDS011;44475;53.206;-6.106;2023-02-15T08:26:32;50.85;;;3.97;;
58697;SDS011;44475;53.206;-6.106;2023-02-15T08:28:59;26.08;;;3.85;;
58697;SDS011;44475;53.206;-6.106;2023-02-15T08:31:26;26.63;;;3.53;;
58697;SDS011;44475;53.206;-6.106;2023-02-15T08:33:53;46.33;;;4.35;;
58697;SDS011;44475;53.206;-6.106;2023-02-15T08:36:22;42.95;;;3.90;;
58697;SDS011;44475;53.206;-6.106;2023-02-15T08:38:51;24.20;;;3.78;;
58697;SDS011;44475;53.206;-6.106;2023-02-15T08:41:19;30.05;;;3.60;;
58697;SDS011;44475;53.206;-6.106;2023-02-15T08:43:48;29.77;;;3.17;;
58697;SDS011;44475;53.206;-6.106;2023-02-15T08:46:17;29.20;;;3.67;;
58697;SDS011;44475;53.206;-6.106;2023-02-15T08:48:44;42.38;;;3.83;;
58697;SDS011;44475;53.206;-6.106;2023-02-15T08:51:17;43.15;;;4.75;;
58697;SDS011;44475;53.206;-6.106;2023-02-15T08:53:45;37.33;;;4.18;;
58697;SDS011;44475;53.206;-6.106;2023-02-15T08:56:16;40.80;;;4.15;;
58697;SDS011;44475;53.206;-6.106;2023-02-15T08:58:44;56.33;;;5.57;;
58697;SDS011;44475;53.206;-6.106;2023-02-15T09:01:11;47.55;;;4.80;;
58697;SDS011;44475;53.206;-6.106;2023-02-15T09:03:43;47.47;;;4.88;;
58697;SDS011;44475;53.206;-6.106;2023-02-15T09:06:11;54.63;;;4.53;;
58697;SDS011;44475;53.206;-6.106;2023-02-15T09:08:38;30.95;;;4.28;;
58697;SDS011;44475;53.206;-6.106;2023-02-15T09:11:06;48.13;;;4.63;;
58697;SDS011;44475;53.206;-6.106;2023-02-15T09:13:34;42.97;;;4.65;;
58697;SDS011;44475;53.206;-6.106;2023-02-15T09:16:01;55.67;;;5.45;;
58697;SDS011;44475;53.206;-6.106;2023-02-15T09:18:30;64.00;;;6.13;;
58697;SDS011;44475;53.206;-6.106;2023-02-15T09:21:03;52.58;;;5.28;;
58697;SDS011;44475;53.206;-6.106;2023-02-15T09:23:34;39.92;;;4.70;;
58697;SDS011;44475;53.206;-6.106;2023-02-15T09:26:02;30.50;;;4.22;;
58697;SDS011;44475;53.206;-6.106;2023-02-15T09:28:30;34.25;;;4.32;;
58697;SDS011;44475;53.206;-6.106;2023-02-15T09:31:03;35.72;;;4.35;;
58697;SDS011;44475;53.206;-6.106;2023-02-15T09:33:40;35.65;;;3.88;;
58697;SDS011;44475;53.206;-6.106;2023-02-15T09:38:41;26.80;;;4.18;;
58697;SDS011;44475;53.206;-6.106;2023-02-15T09:44:04;32.92;;;4.00;;
58697;SDS011;44475;53.206;-6.106;2023-02-15T10:17:45;20.77;;;3.17;;
58697;SDS011;44475;53.206;-6.106;2023-02-15T10:20:37;28.77;;;3.30;;
58697;SDS011;44475;53.206;-6.106;2023-02-15T10:24:01;21.05;;;3.00;;
58697;SDS011;44475;53.206;-6.106;2023-02-15T10:26:19;24.17;;;4.10;;
58697;SDS011;44475;53.206;-6.106;2023-02-15T10:29:00;20.10;;;3.22;;
58697;SDS011;44475;53.206;-6.106;2023-02-15T10:31:47;21.73;;;2.80;;
58697;SDS011;44475;53.206;-6.106;2023-02-15T10:34:32;27.55;;;3.40;;
58697;SDS011;44475;53.206;-6.106;2023-02-15T10:45:16;17.42;;;2.65;;
58697;SDS011;44475;53.206;-6.106;2023-02-15T10:53:22;20.80;;;3.20;;
58697;SDS011;44475;53.206;-6.106;2023-02-15T10:55:54;16.52;;;2.83;;
58697;SDS011;44475;53.206;-6.106;2023-02-15T11:01:17;18.58;;;2.78;;
58697;SDS011;44475;53.206;-6.106;2023-02-15T11:06:37;21.17;;;2.83;;
58697;SDS011;44475;53.206;-6.106;2023-02-15T11:09:11;22.33;;;3.17;;
58697;SDS011;44475;53.206;-6.106;2023-02-15T11:11:41;18.95;;;2.78;;
58697;SDS011;44475;53.206;-6.106;2023-02-15T11:14:15;19.17;;;2.95;;
58697;SDS011;44475;53.206;-6.106;2023-02-15T11:17:04;16.98;;;3.08;;
58697;SDS011;44475;53.206;-6.106;2023-02-15T11:19:46;13.02;;;2.20;;
58697;SDS011;44475;53.206;-6.106;2023-02-15T11:22:25;14.48;;;2.50;;
58697;SDS011;44475;53.206;-6.106;2023-02-15T11:24:51;20.17;;;2.92;;
58697;SDS011;44475;53.206;-6.106;2023-02-15T11:27:20;16.45;;;2.45;;
58697;SDS011;44475;53.206;-6.106;2023-02-15T11:29:55;16.08;;;2.65;;
58697;SDS011;44475;53.206;-6.106;2023-02-15T11:32:33;11.70;;;2.60;;
58697;SDS011;44475;53.206;-6.106;2023-02-15T11:35:10;16.50;;;2.60;;
58697;SDS011;44475;53.206;-6.106;2023-02-15T11:37:51;15.13;;;2.50;;
58697;SDS011;44475;53.206;-6.106;2023-02-15T11:40:30;8.77;;;1.80;;
58697;SDS011;44475;53.206;-6.106;2023-02-15T11:43:16;15.00;;;2.42;;
58697;SDS011;44475;53.206;-6.106;2023-02-15T11:46:07;11.90;;;3.03;;
58697;SDS011;44475;53.206;-6.106;2023-02-15T11:48:35;14.38;;;1.95;;
58697;SDS011;44475;53.206;-6.106;2023-02-15T11:51:02;12.02;;;2.13;;
58697;SDS011;44475;53.206;-6.106;2023-02-15T11:53:31;14.20;;;2.40;;
58697;SDS011;44475;53.206;-6.106;2023-02-15T11:56:01;10.93;;;2.08;;
58697;SDS011;44475;53.206;-6.106;2023-02-15T11:58:48;8.70;;;2.05;;
58697;SDS011;44475;53.206;-6.106;2023-02-15T12:01:34;10.68;;;2.15;;
58697;SDS011;44475;53.206;-6.106;2023-02-15T12:06:46;17.40;;;2.70;;
58697;SDS011;44475;53.206;-6.106;2023-02-15T12:09:32;8.40;;;2.35;;
58697;SDS011;44475;53.206;-6.106;2023-02-15T12:15:09;12.30;;;2.35;;
58697;SDS011;44475;53.206;-6.106;2023-02-15T12:23:23;9.13;;;2.17;;
58697;SDS011;44475;53.206;-6.106;2023-02-15T12:25:50;9.75;;;2.17;;
58697;SDS011;44475;53.206;-6.106;2023-02-15T12:31:26;9.20;;;2.17;;
58697;SDS011;44475;53.206;-6.106;2023-02-15T12:33:59;24.48;;;3.15;;
58697;SDS011;44475;53.206;-6.106;2023-02-15T12:36:29;35.50;;;3.28;;
58697;SDS011;44475;53.206;-6.106;2023-02-15T12:41:37;21.42;;;3.42;;
58697;SDS011;44475;53.206;-6.106;2023-02-15T12:44:16;25.40;;;3.70;;
58697;SDS011;44475;53.206;-6.106;2023-02-15T12:49:44;34.42;;;3.42;;
58697;SDS011;44475;53.206;-6.106;2023-02-15T12:52:30;34.67;;;3.88;;
58697;SDS011;44475;53.206;-6.106;2023-02-15T12:55:09;31.33;;;4.03;;
58697;SDS011;44475;53.206;-6.106;2023-02-15T12:57:43;32.30;;;3.63;;
58697;SDS011;44475;53.206;-6.106;2023-02-15T13:05:31;34.00;;;4.82;;
58697;SDS011;44475;53.206;-6.106;2023-02-15T13:08:13;33.83;;;4.07;;
58697;SDS011;44475;53.206;-6.106;2023-02-15T13:16:51;27.08;;;3.85;;
58697;SDS011;44475;53.206;-6.106;2023-02-15T13:19:31;32.45;;;4.35;;
58697;SDS011;44475;53.206;-6.106;2023-02-15T13:22:02;28.60;;;3.72;;
58697;SDS011;44475;53.206;-6.106;2023-02-15T13:24:41;20.05;;;3.40;;
58697;SDS011;44475;53.206;-6.106;2023-02-15T13:27:15;30.20;;;3.88;;
58697;SDS011;44475;53.206;-6.106;2023-02-15T13:29:46;23.00;;;3.30;;
58697;SDS011;44475;53.206;-6.106;2023-02-15T13:32:27;16.80;;;3.10;;
58697;SDS011;44475;53.206;-6.106;2023-02-15T13:35:06;24.52;;;3.30;;
58697;SDS011;44475;53.206;-6.106;2023-02-15T13:49:00;18.95;;;3.38;;
58697;SDS011;44475;53.206;-6.106;2023-02-15T13:51:58;23.65;;;3.53;;
58697;SDS011;44475;53.206;-6.106;2023-02-15T14:12:41;15.57;;;2.97;;
58697;SDS011;44475;53.206;-6.106;2023-02-15T14:26:03;15.63;;;2.90;;
58697;SDS011;44475;53.206;-6.106;2023-02-15T14:28:41;16.17;;;2.50;;
58697;SDS011;44475;53.206;-6.106;2023-02-15T14:31:30;11.05;;;2.67;;
58697;SDS011;44475;53.206;-6.106;2023-02-15T14:34:02;13.18;;;2.75;;
58697;SDS011;44475;53.206;-6.106;2023-02-15T14:36:29;11.55;;;2.45;;
58697;SDS011;44475;53.206;-6.106;2023-02-15T14:44:47;14.27;;;2.88;;
58697;SDS011;44475;53.206;-6.106;2023-02-15T14:47:18;9.48;;;1.98;;
58697;SDS011;44475;53.206;-6.106;2023-02-15T14:50:23;15.55;;;2.50;;
58697;SDS011;44475;53.206;-6.106;2023-02-15T14:55:47;7.50;;;2.33;;
58697;SDS011;44475;53.206;-6.106;2023-02-15T14:58:29;8.50;;;2.15;;
58697;SDS011;44475;53.206;-6.106;2023-02-15T15:01:02;7.35;;;2.00;;
58697;SDS011;44475;53.206;-6.106;2023-02-15T15:03:34;8.68;;;1.92;;
58697;SDS011;44475;53.206;-6.106;2023-02-15T15:06:02;13.15;;;2.53;;
58697;SDS011;44475;53.206;-6.106;2023-02-15T15:13:58;6.95;;;1.77;;
58697;SDS011;44475;53.206;-6.106;2023-02-15T15:16:28;8.90;;;2.20;;
58697;SDS011;44475;53.206;-6.106;2023-02-15T15:18:55;7.97;;;2.28;;
58697;SDS011;44475;53.206;-6.106;2023-02-15T15:32:46;5.00;;;1.77;;
58697;SDS011;44475;53.206;-6.106;2023-02-15T15:37:50;7.70;;;1.70;;
58697;SDS011;44475;53.206;-6.106;2023-02-15T15:48:57;5.45;;;1.77;;
58697;SDS011;44475;53.206;-6.106;2023-02-15T15:51:46;5.03;;;1.70;;
58697;SDS011;44475;53.206;-6.106;2023-02-15T15:54:17;15.43;;;2.30;;
58697;SDS011;44475;53.206;-6.106;2023-02-15T15:56:59;19.27;;;3.15;;
58697;SDS011;44475;53.206;-6.106;2023-02-15T15:59:32;8.20;;;2.20;;
58697;SDS011;44475;53.206;-6.106;2023-02-15T16:02:06;11.43;;;1.95;;
58697;SDS011;44475;53.206;-6.106;2023-02-15T16:04:36;11.32;;;2.33;;
58697;SDS011;44475;53.206;-6.106;2023-02-15T16:10:00;8.05;;;2.25;;
58697;SDS011;44475;53.206;-6.106;2023-02-15T16:12:30;12.23;;;2.17;;
58697;SDS011;44475;53.206;-6.106;2023-02-15T16:15:01;9.27;;;1.98;;
58697;SDS011;44475;53.206;-6.106;2023-02-15T16:17:38;7.35;;;2.00;;
58697;SDS011;44475;53.206;-6.106;2023-02-15T16:28:33;11.65;;;2.20;;
58697;SDS011;44475;53.206;-6.106;2023-02-15T16:33:41;9.55;;;3.03;;
58697;SDS011;44475;53.206;-6.106;2023-02-15T16:36:20;13.05;;;2.45;;
58697;SDS011;44475;53.206;-6.106;2023-02-15T16:41:17;14.30;;;2.30;;
58697;SDS011;44475;53.206;-6.106;2023-02-15T16:43:54;19.45;;;2.40;;
58697;SDS011;44475;53.206;-6.106;2023-02-15T16:46:26;10.65;;;2.33;;
58697;SDS011;44475;53.206;-6.106;2023-02-15T16:48:57;19.30;;;2.90;;
58697;SDS011;44475;53.206;-6.106;2023-02-15T16:51:28;18.38;;;2.88;;
58697;SDS011;44475;53.206;-6.106;2023-02-15T16:53:57;47.50;;;17.85;;
58697;SDS011;44475;53.206;-6.106;2023-02-15T16:56:40;124.82;;;54.70;;
58697;SDS011;44475;53.206;-6.106;2023-02-15T16:59:16;167.10;;;75.90;;
58697;SDS011;44475;53.206;-6.106;2023-02-15T17:01:53;167.02;;;78.75;;
58697;SDS011;44475;53.206;-6.106;2023-02-15T17:09:23;158.73;;;74.40;;
58697;SDS011;44475;53.206;-6.106;2023-02-15T17:11:50;157.77;;;73.15;;
58697;SDS011;44475;53.206;-6.106;2023-02-15T17:14:30;145.82;;;69.43;;
58697;SDS011;44475;53.206;-6.106;2023-02-15T17:17:05;131.98;;;66.95;;
58697;SDS011;44475;53.206;-6.106;2023-02-15T17:19:44;138.32;;;63.83;;
58697;SDS011;44475;53.206;-6.106;2023-02-15T17:22:21;136.15;;;63.33;;
58697;SDS011;44475;53.206;-6.106;2023-02-15T17:24:50;136.10;;;60.55;;
58697;SDS011;44475;53.206;-6.106;2023-02-15T17:27:25;123.90;;;56.38;;
58697;SDS011;44475;53.206;-6.106;2023-02-15T17:29:57;116.38;;;55.70;;
58697;SDS011;44475;53.206;-6.106;2023-02-15T17:32:30;119.45;;;56.38;;
58697;SDS011;44475;53.206;-6.106;2023-02-15T17:37:59;113.00;;;52.08;;
58697;SDS011;44475;53.206;-6.106;2023-02-15T17:40:28;98.95;;;49.72;;
58697;SDS011;44475;53.206;-6.106;2023-02-15T17:42:56;98.93;;;47.72;;
58697;SDS011;44475;53.206;-6.106;2023-02-15T17:45:30;93.47;;;45.20;;
58697;SDS011;44475;53.206;-6.106;2023-02-15T17:48:02;87.28;;;44.80;;
58697;SDS011;44475;53.206;-6.106;2023-02-15T17:50:29;97.40;;;44.38;;
58697;SDS011;44475;53.206;-6.106;2023-02-15T17:52:56;88.47;;;43.05;;
58697;SDS011;44475;53.206;-6.106;2023-02-15T17:55:23;85.25;;;42.85;;
58697;SDS011;44475;53.206;-6.106;2023-02-15T17:58:12;84.53;;;39.75;;
58697;SDS011;44475;53.206;-6.106;2023-02-15T18:00:44;77.25;;;38.13;;
58697;SDS011;44475;53.206;-6.106;2023-02-15T18:03:44;83.30;;;38.67;;
58697;SDS011;44475;53.206;-6.106;2023-02-15T18:06:34;72.03;;;36.90;;
58697;SDS011;44475;53.206;-6.106;2023-02-15T18:09:20;69.30;;;34.50;;
58697;SDS011;44475;53.206;-6.106;2023-02-15T18:12:27;61.90;;;32.88;;
58697;SDS011;44475;53.206;-6.106;2023-02-15T18:14:54;63.35;;;32.25;;
58697;SDS011;44475;53.206;-6.106;2023-02-15T18:17:23;60.80;;;31.48;;
58697;SDS011;44475;53.206;-6.106;2023-02-15T18:19:56;64.20;;;31.75;;
58697;SDS011;44475;53.206;-6.106;2023-02-15T18:22:26;57.58;;;29.52;;
58697;SDS011;44475;53.206;-6.106;2023-02-15T18:24:53;54.72;;;29.45;;
58697;SDS011;44475;53.206;-6.106;2023-02-15T18:27:20;57.85;;;29.33;;
58697;SDS011;44475;53.206;-6.106;2023-02-15T18:29:46;53.65;;;27.05;;